sensor_id;sensor_type;location;lat;lon;timestamp;pressure;altitude;pressure_sealevel;temperature;humidity
59531;BME280;45349;48.692;8.186;2022-08-19T00:00:29;98345.09;;;18.14;100.00
59531;BME280;45349;48.692;8.186;2022-08-19T00:02:55;98338.56;;;18.17;100.00
59531;BME280;45349;48.692;8.186;2022-08-19T00:05:22;98339.78;;;18.21;100.00
59531;BME280;45349;48.692;8.186;2022-08-19T00:07:51;98327.16;;;18.23;100.00
59531;BME280;45349;48.692;8.186;2022-08-19T00:10:18;98336.09;;;18.22;100.00
59531;BME280;45349;48.692;8.186;2022-08-19T00:12:45;98326.97;;;18.18;100.00
59531;BME280;45349;48.692;8.186;2022-08-19T00:15:15;98340.19;;;18.18;100.00
59531;BME280;45349;48.692;8.186;2022-08-19T00:17:43;98326.38;;;18.15;100.00
59531;BME280;45349;48.692;8.186;2022-08-19T00:20:14;98334.28;;;18.15;100.00
59531;BME280;45349;48.692;8.186;2022-08-19T00:23:02;98327.19;;;18.16;100.00
59531;BME280;45349;48.692;8.186;2022-08-19T00:25:30;98336.75;;;18.17;100.00
59531;BME280;45349;48.692;8.186;2022-08-19T00:27:57;98335.09;;;18.23;100.00
59531;BME280;45349;48.692;8.186;2022-08-19T00:30:24;98330.00;;;18.28;100.00
59531;BME280;45349;48.692;8.186;2022-08-19T00:32:51;98339.31;;;18.37;100.00
59531;BME280;45349;48.692;8.186;2022-08-19T00:35:19;98336.69;;;18.37;100.00
59531;BME280;45349;48.692;8.186;2022-08-19T00:37:47;98337.47;;;18.44;100.00
59531;BME280;45349;48.692;8.186;2022-08-19T00:40:16;98327.31;;;18.48;100.00
59531;BME280;45349;48.692;8.186;2022-08-19T00:42:45;98318.53;;;18.48;100.00
59531;BME280;45349;48.692;8.186;2022-08-19T00:45:15;98302.69;;;18.48;100.00
59531;BME280;45349;48.692;8.186;2022-08-19T00:47:43;98295.16;;;18.51;100.00
59531;BME280;45349;48.692;8.186;2022-08-19T00:50:14;98297.38;;;18.54;100.00
59531;BME280;45349;48.692;8.186;2022-08-19T00:52:43;98314.84;;;18.55;100.00
59531;BME280;45349;48.692;8.186;2022-08-19T00:55:15;98326.25;;;18.56;100.00
59531;BME280;45349;48.692;8.186;2022-08-19T00:57:46;98333.56;;;18.54;100.00
59531;BME280;45349;48.692;8.186;2022-08-19T01:00:16;98332.78;;;18.53;100.00
59531;BME280;45349;48.692;8.186;2022-08-19T01:02:45;98330.69;;;18.55;100.00
59531;BME280;45349;48.692;8.186;2022-08-19T01:05:14;98335.78;;;18.57;100.00
59531;BME280;45349;48.692;8.186;2022-08-19T01:07:44;98326.84;;;18.58;100.00
59531;BME280;45349;48.692;8.186;2022-08-19T01:10:13;98337.41;;;18.58;100.00
59531;BME280;45349;48.692;8.186;2022-08-19T01:12:42;98330.28;;;18.58;100.00
59531;BME280;45349;48.692;8.186;2022-08-19T01:15:12;98327.63;;;18.65;100.00
59531;BME280;45349;48.692;8.186;2022-08-19T01:17:41;98315.84;;;18.61;100.00
59531;BME280;45349;48.692;8.186;2022-08-19T01:20:10;98324.63;;;18.55;100.00
59531;BME280;45349;48.692;8.186;2022-08-19T01:22:42;98325.88;;;18.52;100.00
59531;BME280;45349;48.692;8.186;2022-08-19T01:25:09;98316.72;;;18.48;100.00
59531;BME280;45349;48.692;8.186;2022-08-19T01:27:38;98318.16;;;18.44;100.00
59531;BME280;45349;48.692;8.186;2022-08-19T01:30:06;98327.72;;;18.38;100.00
59531;BME280;45349;48.692;8.186;2022-08-19T01:32:33;98329.16;;;18.34;100.00
59531;BME280;45349;48.692;8.186;2022-08-19T01:35:01;98330.78;;;18.35;100.00
59531;BME280;45349;48.692;8.186;2022-08-19T01:37:28;98322.66;;;18.37;100.00
59531;BME280;45349;48.692;8.186;2022-08-19T01:39:57;98313.72;;;18.31;100.00
59531;BME280;45349;48.692;8.186;2022-08-19T01:42:24;98321.28;;;18.27;100.00
59531;BME280;45349;48.692;8.186;2022-08-19T01:44:51;98315.19;;;18.20;100.00
59531;BME280;45349;48.692;8.186;2022-08-19T01:47:17;98317.44;;;18.17;100.00
59531;BME280;45349;48.692;8.186;2022-08-19T01:49:44;98316.63;;;18.16;100.00
59531;BME280;45349;48.692;8.186;2022-08-19T01:52:11;98317.66;;;18.15;100.00
59531;BME280;45349;48.692;8.186;2022-08-19T01:54:38;98316.41;;;18.18;100.00
59531;BME280;45349;48.692;8.186;2022-08-19T01:57:08;98315.00;;;18.15;100.00
59531;BME280;45349;48.692;8.186;2022-08-19T01:59:37;98318.66;;;18.14;100.00
59531;BME280;45349;48.692;8.186;2022-08-19T02:02:06;98317.03;;;18.13;100.00
59531;BME280;45349;48.692;8.186;2022-08-19T02:04:34;98317.66;;;18.15;100.00
59531;BME280;45349;48.692;8.186;2022-08-19T02:07:01;98315.38;;;18.19;100.00
59531;BME280;45349;48.692;8.186;2022-08-19T02:09:27;98313.16;;;18.22;100.00
59531;BME280;45349;48.692;8.186;2022-08-19T02:11:54;98319.84;;;18.25;100.00
59531;BME280;45349;48.692;8.186;2022-08-19T02:14:22;98313.13;;;18.29;100.00
59531;BME280;45349;48.692;8.186;2022-08-19T02:16:49;98311.47;;;18.41;100.00
59531;BME280;45349;48.692;8.186;2022-08-19T02:19:16;98308.81;;;18.41;100.00
59531;BME280;45349;48.692;8.186;2022-08-19T02:21:43;98304.34;;;18.42;100.00
59531;BME280;45349;48.692;8.186;2022-08-19T02:24:09;98303.94;;;18.45;100.00
59531;BME280;45349;48.692;8.186;2022-08-19T02:26:37;98302.31;;;18.44;100.00
59531;BME280;45349;48.692;8.186;2022-08-19T02:29:04;98316.91;;;18.47;100.00
59531;BME280;45349;48.692;8.186;2022-08-19T02:31:32;98319.16;;;18.50;100.00
59531;BME280;45349;48.692;8.186;2022-08-19T02:33:59;98320.16;;;18.49;100.00
59531;BME280;45349;48.692;8.186;2022-08-19T02:36:26;98316.50;;;18.50;100.00
59531;BME280;45349;48.692;8.186;2022-08-19T02:38:53;98317.34;;;18.50;100.00
59531;BME280;45349;48.692;8.186;2022-08-19T02:41:22;98313.66;;;18.51;100.00
59531;BME280;45349;48.692;8.186;2022-08-19T02:43:49;98316.47;;;18.56;100.00
59531;BME280;45349;48.692;8.186;2022-08-19T02:46:18;98315.44;;;18.57;100.00
59531;BME280;45349;48.692;8.186;2022-08-19T02:48:48;98315.25;;;18.59;100.00
59531;BME280;45349;48.692;8.186;2022-08-19T02:51:17;98315.03;;;18.61;100.00
59531;BME280;45349;48.692;8.186;2022-08-19T02:53:44;98316.66;;;18.62;100.00
59531;BME280;45349;48.692;8.186;2022-08-19T02:56:11;98312.78;;;18.64;100.00
59531;BME280;45349;48.692;8.186;2022-08-19T02:58:38;98319.69;;;18.65;100.00
59531;BME280;45349;48.692;8.186;2022-08-19T03:01:05;98316.81;;;18.67;100.00
59531;BME280;45349;48.692;8.186;2022-08-19T03:03:31;98312.38;;;18.67;100.00
59531;BME280;45349;48.692;8.186;2022-08-19T03:06:09;98316.41;;;18.70;100.00
59531;BME280;45349;48.692;8.186;2022-08-19T03:08:37;98311.94;;;18.70;100.00
59531;BME280;45349;48.692;8.186;2022-08-19T03:11:04;98320.25;;;18.74;100.00
59531;BME280;45349;48.692;8.186;2022-08-19T03:13:31;98307.25;;;18.72;100.00
59531;BME280;45349;48.692;8.186;2022-08-19T03:15:58;98317.41;;;18.76;100.00
59531;BME280;45349;48.692;8.186;2022-08-19T03:18:25;98309.25;;;18.77;100.00
59531;BME280;45349;48.692;8.186;2022-08-19T03:20:52;98313.31;;;18.80;100.00
59531;BME280;45349;48.692;8.186;2022-08-19T03:23:22;98312.50;;;18.79;100.00
59531;BME280;45349;48.692;8.186;2022-08-19T03:25:50;98317.16;;;18.84;100.00
59531;BME280;45349;48.692;8.186;2022-08-19T03:28:20;98330.97;;;18.86;100.00
59531;BME280;45349;48.692;8.186;2022-08-19T03:30:57;98334.06;;;18.83;100.00
59531;BME280;45349;48.692;8.186;2022-08-19T03:33:25;98334.25;;;18.81;100.00
59531;BME280;45349;48.692;8.186;2022-08-19T03:36:04;98334.66;;;18.78;100.00
59531;BME280;45349;48.692;8.186;2022-08-19T03:38:35;98340.78;;;18.79;100.00
59531;BME280;45349;48.692;8.186;2022-08-19T03:41:04;98336.50;;;18.78;100.00
59531;BME280;45349;48.692;8.186;2022-08-19T03:43:34;98341.81;;;18.78;100.00
59531;BME280;45349;48.692;8.186;2022-08-19T03:46:03;98338.34;;;18.77;100.00
59531;BME280;45349;48.692;8.186;2022-08-19T03:48:30;98338.13;;;18.79;100.00
59531;BME280;45349;48.692;8.186;2022-08-19T03:50:58;98339.13;;;18.84;100.00
59531;BME280;45349;48.692;8.186;2022-08-19T03:53:26;98337.91;;;18.80;100.00
59531;BME280;45349;48.692;8.186;2022-08-19T03:55:55;98340.78;;;18.79;100.00
59531;BME280;45349;48.692;8.186;2022-08-19T03:58:23;98341.19;;;18.76;100.00
59531;BME280;45349;48.692;8.186;2022-08-19T04:00:50;98342.41;;;18.73;100.00
59531;BME280;45349;48.692;8.186;2022-08-19T04:03:17;98343.66;;;18.70;100.00
59531;BME280;45349;48.692;8.186;2022-08-19T04:05:45;98346.09;;;18.72;100.00
59531;BME280;45349;48.692;8.186;2022-08-19T04:08:15;98347.94;;;18.71;100.00
59531;BME280;45349;48.692;8.186;2022-08-19T04:10:47;98351.38;;;18.72;100.00
59531;BME280;45349;48.692;8.186;2022-08-19T04:13:17;98352.41;;;18.71;100.00
59531;BME280;45349;48.692;8.186;2022-08-19T04:15:44;98345.28;;;18.71;100.00
59531;BME280;45349;48.692;8.186;2022-08-19T04:18:12;98349.97;;;18.69;100.00
59531;BME280;45349;48.692;8.186;2022-08-19T04:20:43;98349.56;;;18.72;100.00
59531;BME280;45349;48.692;8.186;2022-08-19T04:23:11;98342.41;;;18.73;100.00
59531;BME280;45349;48.692;8.186;2022-08-19T04:25:39;98352.97;;;18.80;100.00
59531;BME280;45349;48.692;8.186;2022-08-19T04:28:06;98344.44;;;18.78;100.00
59531;BME280;45349;48.692;8.186;2022-08-19T04:30:40;98345.84;;;18.80;100.00
59531;BME280;45349;48.692;8.186;2022-08-19T04:33:08;98344.88;;;18.74;100.00
59531;BME280;45349;48.692;8.186;2022-08-19T04:35:36;98347.94;;;18.71;100.00
59531;BME280;45349;48.692;8.186;2022-08-19T04:38:04;98350.41;;;18.66;100.00
59531;BME280;45349;48.692;8.186;2022-08-19T04:40:31;98349.78;;;18.64;100.00
59531;BME280;45349;48.692;8.186;2022-08-19T04:43:31;98342.28;;;18.61;100.00
59531;BME280;45349;48.692;8.186;2022-08-19T04:46:04;98347.34;;;18.63;100.00
59531;BME280;45349;48.692;8.186;2022-08-19T04:48:31;98346.31;;;18.64;100.00
59531;BME280;45349;48.692;8.186;2022-08-19T04:50:58;98350.81;;;18.63;100.00
59531;BME280;45349;48.692;8.186;2022-08-19T04:53:25;98354.06;;;18.65;100.00
59531;BME280;45349;48.692;8.186;2022-08-19T04:55:54;98367.28;;;18.65;100.00
59531;BME280;45349;48.692;8.186;2022-08-19T04:58:22;98366.03;;;18.68;100.00
59531;BME280;45349;48.692;8.186;2022-08-19T05:00:49;98366.84;;;18.68;100.00
59531;BME280;45349;48.692;8.186;2022-08-19T05:03:17;98367.66;;;18.69;100.00
59531;BME280;45349;48.692;8.186;2022-08-19T05:05:45;98367.63;;;18.76;100.00
59531;BME280;45349;48.692;8.186;2022-08-19T05:08:16;98379.63;;;18.78;100.00
59531;BME280;45349;48.692;8.186;2022-08-19T05:10:45;98377.97;;;18.84;100.00
59531;BME280;45349;48.692;8.186;2022-08-19T05:13:13;98380.19;;;18.87;100.00
59531;BME280;45349;48.692;8.186;2022-08-19T05:15:40;98387.91;;;18.88;100.00
59531;BME280;45349;48.692;8.186;2022-08-19T05:18:07;98384.66;;;18.93;100.00
59531;BME280;45349;48.692;8.186;2022-08-19T05:20:53;98396.03;;;19.00;100.00
59531;BME280;45349;48.692;8.186;2022-08-19T05:23:38;98392.97;;;19.03;100.00
59531;BME280;45349;48.692;8.186;2022-08-19T05:26:06;98394.16;;;19.08;100.00
59531;BME280;45349;48.692;8.186;2022-08-19T05:28:34;98407.34;;;19.14;100.00
59531;BME280;45349;48.692;8.186;2022-08-19T05:31:01;98415.66;;;19.18;100.00
59531;BME280;45349;48.692;8.186;2022-08-19T05:33:28;98415.25;;;19.21;100.00
59531;BME280;45349;48.692;8.186;2022-08-19T05:35:56;98412.16;;;19.24;100.00
59531;BME280;45349;48.692;8.186;2022-08-19T05:38:24;98419.50;;;19.29;100.00
59531;BME280;45349;48.692;8.186;2022-08-19T05:40:52;98417.44;;;19.31;100.00
59531;BME280;45349;48.692;8.186;2022-08-19T05:43:19;98438.19;;;19.34;100.00
59531;BME280;45349;48.692;8.186;2022-08-19T05:45:46;98430.44;;;19.32;100.00
59531;BME280;45349;48.692;8.186;2022-08-19T05:48:13;98431.03;;;19.35;100.00
59531;BME280;45349;48.692;8.186;2022-08-19T05:50:41;98427.59;;;19.34;100.00
59531;BME280;45349;48.692;8.186;2022-08-19T05:53:09;98431.03;;;19.41;100.00
59531;BME280;45349;48.692;8.186;2022-08-19T05:55:36;98421.03;;;19.43;100.00
59531;BME280;45349;48.692;8.186;2022-08-19T05:58:04;98430.66;;;19.31;100.00
59531;BME280;45349;48.692;8.186;2022-08-19T06:00:32;98431.28;;;19.33;100.00
59531;BME280;45349;48.692;8.186;2022-08-19T06:02:59;98429.00;;;19.37;100.00
59531;BME280;45349;48.692;8.186;2022-08-19T06:05:28;98429.00;;;19.37;100.00
59531;BME280;45349;48.692;8.186;2022-08-19T06:07:55;98425.91;;;19.40;100.00
59531;BME280;45349;48.692;8.186;2022-08-19T06:10:24;98424.69;;;19.42;100.00
59531;BME280;45349;48.692;8.186;2022-08-19T06:12:51;98429.50;;;19.52;100.00
59531;BME280;45349;48.692;8.186;2022-08-19T06:15:18;98437.09;;;19.49;100.00
59531;BME280;45349;48.692;8.186;2022-08-19T06:17:45;98434.81;;;19.52;100.00
59531;BME280;45349;48.692;8.186;2022-08-19T06:20:14;98446.59;;;19.56;100.00
59531;BME280;45349;48.692;8.186;2022-08-19T06:22:45;98450.69;;;19.52;100.00
59531;BME280;45349;48.692;8.186;2022-08-19T06:25:12;98451.97;;;19.43;100.00
59531;BME280;45349;48.692;8.186;2022-08-19T06:27:42;98459.28;;;19.47;100.00
59531;BME280;45349;48.692;8.186;2022-08-19T06:30:10;98453.13;;;19.54;100.00
59531;BME280;45349;48.692;8.186;2022-08-19T06:32:37;98452.66;;;19.64;100.00
59531;BME280;45349;48.692;8.186;2022-08-19T06:35:05;98455.31;;;19.64;100.00
59531;BME280;45349;48.692;8.186;2022-08-19T06:37:32;98462.13;;;19.78;100.00
59531;BME280;45349;48.692;8.186;2022-08-19T06:39:59;98462.31;;;19.83;100.00
59531;BME280;45349;48.692;8.186;2022-08-19T06:42:25;98462.66;;;19.94;100.00
59531;BME280;45349;48.692;8.186;2022-08-19T06:44:53;98460.94;;;20.06;100.00
59531;BME280;45349;48.692;8.186;2022-08-19T06:47:21;98463.75;;;20.11;98.51
59531;BME280;45349;48.692;8.186;2022-08-19T06:49:48;98466.53;;;20.16;98.48
59531;BME280;45349;48.692;8.186;2022-08-19T06:52:14;98470.97;;;20.23;97.87
59531;BME280;45349;48.692;8.186;2022-08-19T06:54:41;98468.53;;;20.21;97.08
59531;BME280;45349;48.692;8.186;2022-08-19T06:57:09;98458.31;;;20.25;97.32
59531;BME280;45349;48.692;8.186;2022-08-19T06:59:40;98466.22;;;20.31;96.94
59531;BME280;45349;48.692;8.186;2022-08-19T07:02:08;98467.16;;;20.37;96.52
59531;BME280;45349;48.692;8.186;2022-08-19T07:04:36;98472.25;;;20.39;96.93
59531;BME280;45349;48.692;8.186;2022-08-19T07:07:05;98476.16;;;20.36;95.31
59531;BME280;45349;48.692;8.186;2022-08-19T07:09:34;98476.22;;;20.29;97.05
59531;BME280;45349;48.692;8.186;2022-08-19T07:12:03;98476.16;;;20.11;98.15
59531;BME280;45349;48.692;8.186;2022-08-19T07:14:30;98476.34;;;20.16;97.54
59531;BME280;45349;48.692;8.186;2022-08-19T07:16:57;98468.72;;;20.26;98.44
59531;BME280;45349;48.692;8.186;2022-08-19T07:19:26;98474.69;;;20.40;95.47
59531;BME280;45349;48.692;8.186;2022-08-19T07:21:55;98474.78;;;20.52;94.57
59531;BME280;45349;48.692;8.186;2022-08-19T07:24:23;98478.31;;;20.46;94.83
59531;BME280;45349;48.692;8.186;2022-08-19T07:26:52;98480.00;;;20.59;93.00
59531;BME280;45349;48.692;8.186;2022-08-19T07:29:21;98475.88;;;20.63;92.69
59531;BME280;45349;48.692;8.186;2022-08-19T07:31:49;98479.81;;;20.79;92.82
59531;BME280;45349;48.692;8.186;2022-08-19T07:34:16;98482.03;;;20.63;93.11
59531;BME280;45349;48.692;8.186;2022-08-19T07:36:45;98482.88;;;20.76;93.12
59531;BME280;45349;48.692;8.186;2022-08-19T07:39:14;98478.59;;;20.82;93.37
59531;BME280;45349;48.692;8.186;2022-08-19T07:41:42;98479.97;;;21.03;91.78
59531;BME280;45349;48.692;8.186;2022-08-19T07:44:09;98482.31;;;20.92;89.75
59531;BME280;45349;48.692;8.186;2022-08-19T07:46:41;98486.84;;;20.92;90.93
59531;BME280;45349;48.692;8.186;2022-08-19T07:49:11;98489.47;;;21.11;89.62
59531;BME280;45349;48.692;8.186;2022-08-19T07:51:44;98480.63;;;21.17;88.36
59531;BME280;45349;48.692;8.186;2022-08-19T07:54:12;98482.94;;;21.25;87.45
59531;BME280;45349;48.692;8.186;2022-08-19T07:56:39;98480.81;;;21.34;86.88
59531;BME280;45349;48.692;8.186;2022-08-19T07:59:06;98486.81;;;21.11;86.83
59531;BME280;45349;48.692;8.186;2022-08-19T08:01:33;98483.66;;;21.02;87.99
59531;BME280;45349;48.692;8.186;2022-08-19T08:04:00;98478.13;;;20.85;87.69
59531;BME280;45349;48.692;8.186;2022-08-19T08:06:47;98477.84;;;21.12;86.97
59531;BME280;45349;48.692;8.186;2022-08-19T08:09:35;98480.88;;;21.27;86.85
59531;BME280;45349;48.692;8.186;2022-08-19T08:12:05;98477.00;;;21.42;86.32
59531;BME280;45349;48.692;8.186;2022-08-19T08:14:35;98487.91;;;21.52;84.39
59531;BME280;45349;48.692;8.186;2022-08-19T08:17:03;98487.72;;;21.35;82.66
59531;BME280;45349;48.692;8.186;2022-08-19T08:19:31;98482.56;;;21.40;84.76
59531;BME280;45349;48.692;8.186;2022-08-19T08:22:00;98483.63;;;21.51;82.52
59531;BME280;45349;48.692;8.186;2022-08-19T08:24:29;98485.69;;;21.49;81.33
59531;BME280;45349;48.692;8.186;2022-08-19T08:26:57;98488.03;;;21.57;81.83
59531;BME280;45349;48.692;8.186;2022-08-19T08:29:25;98482.50;;;21.89;80.22
59531;BME280;45349;48.692;8.186;2022-08-19T08:31:52;98485.88;;;22.08;80.52
59531;BME280;45349;48.692;8.186;2022-08-19T08:34:19;98492.69;;;22.40;77.18
59531;BME280;45349;48.692;8.186;2022-08-19T08:36:47;98496.41;;;22.63;74.51
59531;BME280;45349;48.692;8.186;2022-08-19T08:39:17;98494.91;;;22.67;72.28
59531;BME280;45349;48.692;8.186;2022-08-19T08:41:51;98501.34;;;22.83;71.77
59531;BME280;45349;48.692;8.186;2022-08-19T08:44:22;98506.44;;;22.96;71.32
59531;BME280;45349;48.692;8.186;2022-08-19T08:46:51;98498.03;;;23.28;70.85
59531;BME280;45349;48.692;8.186;2022-08-19T08:49:29;98500.97;;;23.73;69.44
59531;BME280;45349;48.692;8.186;2022-08-19T08:52:02;98502.16;;;23.65;66.61
59531;BME280;45349;48.692;8.186;2022-08-19T08:54:34;98500.81;;;23.80;64.75
59531;BME280;45349;48.692;8.186;2022-08-19T08:57:04;98507.09;;;23.73;65.08
59531;BME280;45349;48.692;8.186;2022-08-19T08:59:36;98508.53;;;23.64;63.90
59531;BME280;45349;48.692;8.186;2022-08-19T09:02:04;98512.63;;;23.55;64.89
59531;BME280;45349;48.692;8.186;2022-08-19T09:04:31;98519.88;;;23.88;64.59
59531;BME280;45349;48.692;8.186;2022-08-19T09:07:12;98526.88;;;24.07;62.44
59531;BME280;45349;48.692;8.186;2022-08-19T09:09:46;98520.56;;;24.13;62.47
59531;BME280;45349;48.692;8.186;2022-08-19T09:12:20;98515.81;;;24.15;61.89
59531;BME280;45349;48.692;8.186;2022-08-19T09:14:52;98518.22;;;24.16;62.28
59531;BME280;45349;48.692;8.186;2022-08-19T09:17:26;98516.91;;;24.36;61.56
59531;BME280;45349;48.692;8.186;2022-08-19T09:19:58;98510.06;;;24.23;63.35
59531;BME280;45349;48.692;8.186;2022-08-19T09:22:28;98519.88;;;24.57;60.21
59531;BME280;45349;48.692;8.186;2022-08-19T09:24:56;98519.38;;;24.38;60.54
59531;BME280;45349;48.692;8.186;2022-08-19T09:27:42;98520.47;;;24.42;61.69
59531;BME280;45349;48.692;8.186;2022-08-19T09:30:13;98515.28;;;24.52;60.24
59531;BME280;45349;48.692;8.186;2022-08-19T09:32:40;98513.94;;;24.72;58.73
59531;BME280;45349;48.692;8.186;2022-08-19T09:35:08;98515.78;;;24.88;57.58
59531;BME280;45349;48.692;8.186;2022-08-19T09:37:35;98522.13;;;25.04;57.92
59531;BME280;45349;48.692;8.186;2022-08-19T09:40:05;98518.28;;;25.17;56.82
59531;BME280;45349;48.692;8.186;2022-08-19T09:42:32;98518.66;;;25.04;57.65
59531;BME280;45349;48.692;8.186;2022-08-19T09:44:59;98517.66;;;24.88;57.53
59531;BME280;45349;48.692;8.186;2022-08-19T09:47:26;98519.53;;;24.70;60.18
59531;BME280;45349;48.692;8.186;2022-08-19T09:49:52;98524.72;;;24.99;58.54
59531;BME280;45349;48.692;8.186;2022-08-19T09:52:20;98530.94;;;24.83;58.76
59531;BME280;45349;48.692;8.186;2022-08-19T09:54:47;98528.31;;;24.49;57.90
59531;BME280;45349;48.692;8.186;2022-08-19T09:57:16;98522.50;;;24.52;58.88
59531;BME280;45349;48.692;8.186;2022-08-19T09:59:43;98524.81;;;24.65;57.43
59531;BME280;45349;48.692;8.186;2022-08-19T10:02:10;98522.22;;;24.53;59.21
59531;BME280;45349;48.692;8.186;2022-08-19T10:04:37;98522.91;;;24.43;57.89
59531;BME280;45349;48.692;8.186;2022-08-19T10:07:20;98522.22;;;24.53;57.22
59531;BME280;45349;48.692;8.186;2022-08-19T10:09:47;98530.63;;;24.79;56.38
59531;BME280;45349;48.692;8.186;2022-08-19T10:12:15;98523.81;;;24.71;55.99
59531;BME280;45349;48.692;8.186;2022-08-19T10:14:42;98529.63;;;24.85;56.00
59531;BME280;45349;48.692;8.186;2022-08-19T10:17:09;98536.72;;;24.74;56.98
59531;BME280;45349;48.692;8.186;2022-08-19T10:19:37;98525.84;;;24.81;56.88
59531;BME280;45349;48.692;8.186;2022-08-19T10:22:04;98529.66;;;24.68;56.98
59531;BME280;45349;48.692;8.186;2022-08-19T10:24:32;98526.53;;;24.94;56.30
59531;BME280;45349;48.692;8.186;2022-08-19T10:27:00;98532.81;;;25.04;55.39
59531;BME280;45349;48.692;8.186;2022-08-19T10:29:30;98538.66;;;25.24;54.97
59531;BME280;45349;48.692;8.186;2022-08-19T10:32:00;98536.47;;;25.20;54.54
59531;BME280;45349;48.692;8.186;2022-08-19T10:34:28;98531.59;;;25.62;53.89
59531;BME280;45349;48.692;8.186;2022-08-19T10:36:56;98529.16;;;25.88;54.36
59531;BME280;45349;48.692;8.186;2022-08-19T10:39:23;98531.06;;;25.87;51.13
59531;BME280;45349;48.692;8.186;2022-08-19T10:41:50;98522.22;;;25.87;52.23
59531;BME280;45349;48.692;8.186;2022-08-19T10:44:16;98517.34;;;25.29;53.25
59531;BME280;45349;48.692;8.186;2022-08-19T10:46:45;98511.81;;;25.13;54.20
59531;BME280;45349;48.692;8.186;2022-08-19T10:49:12;98523.44;;;25.02;55.52
59531;BME280;45349;48.692;8.186;2022-08-19T10:51:39;98523.75;;;25.28;53.06
59531;BME280;45349;48.692;8.186;2022-08-19T10:54:25;98520.13;;;25.39;51.98
59531;BME280;45349;48.692;8.186;2022-08-19T10:57:12;98515.78;;;24.88;53.83
59531;BME280;45349;48.692;8.186;2022-08-19T10:59:38;98510.16;;;25.07;53.94
59531;BME280;45349;48.692;8.186;2022-08-19T11:02:09;98502.81;;;24.75;53.33
59531;BME280;45349;48.692;8.186;2022-08-19T11:04:37;98505.53;;;25.02;54.07
59531;BME280;45349;48.692;8.186;2022-08-19T11:07:06;98508.91;;;25.64;52.58
59531;BME280;45349;48.692;8.186;2022-08-19T11:09:37;98500.13;;;26.02;50.51
59531;BME280;45349;48.692;8.186;2022-08-19T11:12:06;98497.91;;;26.64;49.81
59531;BME280;45349;48.692;8.186;2022-08-19T11:14:34;98483.69;;;26.63;50.85
59531;BME280;45349;48.692;8.186;2022-08-19T11:17:01;98495.53;;;26.78;50.00
59531;BME280;45349;48.692;8.186;2022-08-19T11:19:30;98499.69;;;26.96;47.87
59531;BME280;45349;48.692;8.186;2022-08-19T11:21:57;98502.88;;;26.88;48.18
59531;BME280;45349;48.692;8.186;2022-08-19T11:24:28;98495.47;;;27.21;48.05
59531;BME280;45349;48.692;8.186;2022-08-19T11:27:01;98499.97;;;27.05;47.58
59531;BME280;45349;48.692;8.186;2022-08-19T11:29:30;98500.09;;;26.72;48.38
59531;BME280;45349;48.692;8.186;2022-08-19T11:31:58;98492.44;;;26.96;49.14
59531;BME280;45349;48.692;8.186;2022-08-19T11:34:27;98492.81;;;27.36;48.67
59531;BME280;45349;48.692;8.186;2022-08-19T11:36:56;98493.66;;;27.47;46.49
59531;BME280;45349;48.692;8.186;2022-08-19T11:39:25;98497.69;;;27.50;47.10
59531;BME280;45349;48.692;8.186;2022-08-19T11:41:52;98497.38;;;27.25;46.59
59531;BME280;45349;48.692;8.186;2022-08-19T11:44:19;98497.59;;;26.60;48.03
59531;BME280;45349;48.692;8.186;2022-08-19T11:46:46;98492.50;;;27.17;46.92
59531;BME280;45349;48.692;8.186;2022-08-19T11:49:13;98494.63;;;27.05;46.21
59531;BME280;45349;48.692;8.186;2022-08-19T11:51:41;98489.56;;;27.19;46.41
59531;BME280;45349;48.692;8.186;2022-08-19T11:54:10;98481.81;;;27.17;46.32
59531;BME280;45349;48.692;8.186;2022-08-19T11:56:37;98482.88;;;27.16;47.89
59531;BME280;45349;48.692;8.186;2022-08-19T11:59:04;98495.09;;;26.43;47.16
59531;BME280;45349;48.692;8.186;2022-08-19T12:01:31;98491.34;;;26.44;47.20
59531;BME280;45349;48.692;8.186;2022-08-19T12:03:58;98486.09;;;26.17;47.77
59531;BME280;45349;48.692;8.186;2022-08-19T12:06:28;98497.00;;;25.77;49.44
59531;BME280;45349;48.692;8.186;2022-08-19T12:08:55;98500.28;;;25.85;47.83
59531;BME280;45349;48.692;8.186;2022-08-19T12:11:24;98505.63;;;25.85;47.69
59531;BME280;45349;48.692;8.186;2022-08-19T12:14:11;98504.31;;;25.60;49.70
59531;BME280;45349;48.692;8.186;2022-08-19T12:16:39;98503.41;;;26.09;49.41
59531;BME280;45349;48.692;8.186;2022-08-19T12:19:07;98502.78;;;25.97;49.39
59531;BME280;45349;48.692;8.186;2022-08-19T12:21:35;98505.69;;;26.28;48.89
59531;BME280;45349;48.692;8.186;2022-08-19T12:24:05;98501.34;;;25.56;50.16
59531;BME280;45349;48.692;8.186;2022-08-19T12:26:52;98505.53;;;25.74;50.37
59531;BME280;45349;48.692;8.186;2022-08-19T12:29:20;98500.50;;;25.78;50.22
59531;BME280;45349;48.692;8.186;2022-08-19T12:31:55;98503.94;;;25.24;50.79
59531;BME280;45349;48.692;8.186;2022-08-19T12:34:26;98504.13;;;24.95;51.57
59531;BME280;45349;48.692;8.186;2022-08-19T12:36:55;98504.94;;;25.17;51.01
59531;BME280;45349;48.692;8.186;2022-08-19T12:39:22;98503.03;;;25.40;50.56
59531;BME280;45349;48.692;8.186;2022-08-19T12:41:48;98503.53;;;25.59;50.73
59531;BME280;45349;48.692;8.186;2022-08-19T12:44:17;98502.84;;;25.74;49.45
59531;BME280;45349;48.692;8.186;2022-08-19T12:46:44;98490.03;;;26.09;48.59
59531;BME280;45349;48.692;8.186;2022-08-19T12:49:11;98500.75;;;26.47;48.65
59531;BME280;45349;48.692;8.186;2022-08-19T12:51:37;98494.84;;;26.88;47.42
59531;BME280;45349;48.692;8.186;2022-08-19T12:54:04;98488.56;;;26.72;47.17
59531;BME280;45349;48.692;8.186;2022-08-19T12:56:31;98491.59;;;26.86;47.50
59531;BME280;45349;48.692;8.186;2022-08-19T12:59:01;98484.94;;;26.93;47.96
59531;BME280;45349;48.692;8.186;2022-08-19T13:01:29;98491.84;;;26.84;47.89
59531;BME280;45349;48.692;8.186;2022-08-19T13:03:58;98488.75;;;27.13;47.19